sensor_id;sensor_type;location;lat;lon;timestamp;P1;durP1;ratioP1;P2;durP2;ratioP2
11572;SDS011;5842;52.426;4.886;2022-09-28T00:00:21;5.20;;;3.30;;
11572;SDS011;5842;52.426;4.886;2022-09-28T00:02:49;7.77;;;3.40;;
11572;SDS011;5842;52.426;4.886;2022-09-28T00:05:17;7.22;;;4.45;;
11572;SDS011;5842;52.426;4.886;2022-09-28T00:07:45;4.20;;;3.27;;
11572;SDS011;5842;52.426;4.886;2022-09-28T00:10:13;5.40;;;4.00;;
11572;SDS011;5842;52.426;4.886;2022-09-28T00:12:40;5.80;;;3.37;;
11572;SDS011;5842;52.426;4.886;2022-09-28T06:22:08;6.60;;;4.33;;
11572;SDS011;5842;52.426;4.886;2022-09-28T06:24:35;5.70;;;4.50;;
11572;SDS011;5842;52.426;4.886;2022-09-28T06:27:02;5.93;;;4.37;;
11572;SDS011;5842;52.426;4.886;2022-09-28T06:29:29;8.10;;;5.50;;
11572;SDS011;5842;52.426;4.886;2022-09-28T06:31:58;7.10;;;5.30;;
11572;SDS011;5842;52.426;4.886;2022-09-28T06:34:27;7.97;;;5.67;;
11572;SDS011;5842;52.426;4.886;2022-09-28T06:36:55;9.20;;;5.07;;
11572;SDS011;5842;52.426;4.886;2022-09-28T06:39:22;7.47;;;5.00;;
11572;SDS011;5842;52.426;4.886;2022-09-28T06:41:49;7.87;;;4.97;;
11572;SDS011;5842;52.426;4.886;2022-09-28T06:44:16;7.67;;;4.80;;
11572;SDS011;5842;52.426;4.886;2022-09-28T06:46:44;7.67;;;4.57;;
11572;SDS011;5842;52.426;4.886;2022-09-28T06:49:16;10.00;;;4.87;;
11572;SDS011;5842;52.426;4.886;2022-09-28T06:51:46;7.90;;;4.40;;
11572;SDS011;5842;52.426;4.886;2022-09-28T06:54:13;5.57;;;4.33;;
11572;SDS011;5842;52.426;4.886;2022-09-28T06:56:40;8.97;;;5.20;;
11572;SDS011;5842;52.426;4.886;2022-09-28T06:59:20;9.70;;;5.10;;
11572;SDS011;5842;52.426;4.886;2022-09-28T07:01:48;8.03;;;5.90;;
11572;SDS011;5842;52.426;4.886;2022-09-28T07:04:16;8.23;;;5.63;;
11572;SDS011;5842;52.426;4.886;2022-09-28T07:06:45;9.13;;;5.80;;
11572;SDS011;5842;52.426;4.886;2022-09-28T07:09:12;8.30;;;5.00;;
11572;SDS011;5842;52.426;4.886;2022-09-28T07:11:39;7.10;;;5.10;;
11572;SDS011;5842;52.426;4.886;2022-09-28T07:14:08;6.00;;;5.07;;
11572;SDS011;5842;52.426;4.886;2022-09-28T07:16:36;5.63;;;3.53;;
11572;SDS011;5842;52.426;4.886;2022-09-28T09:22:10;0.77;;;0.70;;
11572;SDS011;5842;52.426;4.886;2022-09-28T09:24:46;1.57;;;0.90;;
11572;SDS011;5842;52.426;4.886;2022-09-28T09:27:17;3.27;;;1.03;;
11572;SDS011;5842;52.426;4.886;2022-09-28T09:29:58;1.20;;;1.10;;
11572;SDS011;5842;52.426;4.886;2022-09-28T09:32:35;1.67;;;1.03;;
11572;SDS011;5842;52.426;4.886;2022-09-28T09:35:20;1.37;;;0.80;;
11572;SDS011;5842;52.426;4.886;2022-09-28T09:38:00;1.40;;;0.70;;
11572;SDS011;5842;52.426;4.886;2022-09-28T09:40:41;0.60;;;0.60;;
11572;SDS011;5842;52.426;4.886;2022-09-28T09:46:22;2.40;;;0.83;;
11572;SDS011;5842;52.426;4.886;2022-09-28T09:48:59;0.80;;;0.70;;
11572;SDS011;5842;52.426;4.886;2022-09-28T09:51:34;1.00;;;0.80;;
11572;SDS011;5842;52.426;4.886;2022-09-28T09:54:09;1.93;;;0.90;;
11572;SDS011;5842;52.426;4.886;2022-09-28T09:56:44;1.97;;;0.80;;
11572;SDS011;5842;52.426;4.886;2022-09-28T09:59:16;1.27;;;0.70;;
11572;SDS011;5842;52.426;4.886;2022-09-28T10:01:55;3.37;;;1.00;;
11572;SDS011;5842;52.426;4.886;2022-09-28T10:04:26;1.67;;;0.93;;
11572;SDS011;5842;52.426;4.886;2022-09-28T10:06:57;1.30;;;0.90;;
11572;SDS011;5842;52.426;4.886;2022-09-28T10:09:29;1.93;;;1.10;;
11572;SDS011;5842;52.426;4.886;2022-09-28T10:12:00;1.30;;;0.80;;
11572;SDS011;5842;52.426;4.886;2022-09-28T10:14:28;1.57;;;0.97;;
11572;SDS011;5842;52.426;4.886;2022-09-28T10:16:55;0.87;;;0.73;;
11572;SDS011;5842;52.426;4.886;2022-09-28T10:19:27;1.60;;;0.87;;
11572;SDS011;5842;52.426;4.886;2022-09-28T10:21:57;1.40;;;0.90;;
11572;SDS011;5842;52.426;4.886;2022-09-28T10:24:28;5.00;;;1.53;;
11572;SDS011;5842;52.426;4.886;2022-09-28T10:26:58;4.10;;;2.50;;
11572;SDS011;5842;52.426;4.886;2022-09-28T10:29:33;3.40;;;1.70;;
11572;SDS011;5842;52.426;4.886;2022-09-28T10:32:18;2.67;;;1.43;;
11572;SDS011;5842;52.426;4.886;2022-09-28T10:34:49;2.70;;;1.43;;
11572;SDS011;5842;52.426;4.886;2022-09-28T10:37:19;2.43;;;1.53;;
11572;SDS011;5842;52.426;4.886;2022-09-28T10:39:49;2.17;;;1.40;;
11572;SDS011;5842;52.426;4.886;2022-09-28T10:42:18;4.27;;;1.50;;
11572;SDS011;5842;52.426;4.886;2022-09-28T10:44:53;3.17;;;1.30;;
11572;SDS011;5842;52.426;4.886;2022-09-28T10:47:24;3.00;;;1.30;;
11572;SDS011;5842;52.426;4.886;2022-09-28T10:49:54;3.33;;;1.43;;
11572;SDS011;5842;52.426;4.886;2022-09-28T10:52:32;2.07;;;1.23;;
11572;SDS011;5842;52.426;4.886;2022-09-28T10:55:21;4.03;;;1.50;;
11572;SDS011;5842;52.426;4.886;2022-09-28T10:57:52;3.27;;;1.30;;
11572;SDS011;5842;52.426;4.886;2022-09-28T11:00:29;4.63;;;1.40;;
11572;SDS011;5842;52.426;4.886;2022-09-28T11:03:01;1.10;;;1.00;;
11572;SDS011;5842;52.426;4.886;2022-09-28T11:05:30;5.67;;;1.03;;
11572;SDS011;5842;52.426;4.886;2022-09-28T11:07:59;2.13;;;1.03;;
11572;SDS011;5842;52.426;4.886;2022-09-28T11:10:31;3.43;;;1.17;;
11572;SDS011;5842;52.426;4.886;2022-09-28T11:12:59;2.60;;;1.20;;
11572;SDS011;5842;52.426;4.886;2022-09-28T11:15:27;2.83;;;1.30;;
11572;SDS011;5842;52.426;4.886;2022-09-28T11:17:57;2.27;;;1.13;;
11572;SDS011;5842;52.426;4.886;2022-09-28T11:20:47;3.33;;;1.17;;
11572;SDS011;5842;52.426;4.886;2022-09-28T11:23:18;1.87;;;0.90;;
11572;SDS011;5842;52.426;4.886;2022-09-28T11:25:57;3.13;;;1.20;;
11572;SDS011;5842;52.426;4.886;2022-09-28T11:28:28;2.83;;;1.30;;
11572;SDS011;5842;52.426;4.886;2022-09-28T11:30:59;1.70;;;1.00;;
11572;SDS011;5842;52.426;4.886;2022-09-28T11:33:31;1.37;;;1.00;;
11572;SDS011;5842;52.426;4.886;2022-09-28T11:36:16;1.00;;;0.90;;
11572;SDS011;5842;52.426;4.886;2022-09-28T11:38:55;0.70;;;0.70;;
11572;SDS011;5842;52.426;4.886;2022-09-28T11:41:51;0.63;;;0.60;;
11572;SDS011;5842;52.426;4.886;2022-09-28T11:44:35;3.07;;;1.17;;
11572;SDS011;5842;52.426;4.886;2022-09-28T11:50:00;0.83;;;0.80;;
11572;SDS011;5842;52.426;4.886;2022-09-28T11:52:33;1.83;;;0.90;;
11572;SDS011;5842;52.426;4.886;2022-09-28T11:55:09;1.20;;;0.90;;
11572;SDS011;5842;52.426;4.886;2022-09-28T11:57:41;0.77;;;0.70;;
11572;SDS011;5842;52.426;4.886;2022-09-28T12:00:12;2.23;;;0.90;;
11572;SDS011;5842;52.426;4.886;2022-09-28T12:02:41;2.13;;;1.00;;
11572;SDS011;5842;52.426;4.886;2022-09-28T12:05:16;5.20;;;1.50;;
11572;SDS011;5842;52.426;4.886;2022-09-28T12:07:51;7.83;;;1.73;;
11572;SDS011;5842;52.426;4.886;2022-09-28T12:10:25;5.10;;;1.40;;
11572;SDS011;5842;52.426;4.886;2022-09-28T12:12:57;4.33;;;1.60;;
11572;SDS011;5842;52.426;4.886;2022-09-28T12:15:28;4.10;;;1.63;;
11572;SDS011;5842;52.426;4.886;2022-09-28T12:17:57;3.10;;;1.03;;
11572;SDS011;5842;52.426;4.886;2022-09-28T12:20:28;4.40;;;1.10;;
11572;SDS011;5842;52.426;4.886;2022-09-28T12:23:04;1.97;;;0.97;;
11572;SDS011;5842;52.426;4.886;2022-09-28T12:25:38;1.60;;;1.13;;
11572;SDS011;5842;52.426;4.886;2022-09-28T12:28:12;1.67;;;1.00;;
11572;SDS011;5842;52.426;4.886;2022-09-28T12:30:44;1.53;;;1.00;;
11572;SDS011;5842;52.426;4.886;2022-09-28T12:33:14;2.50;;;1.03;;
11572;SDS011;5842;52.426;4.886;2022-09-28T12:35:46;3.03;;;1.00;;
11572;SDS011;5842;52.426;4.886;2022-09-28T12:38:29;2.07;;;0.90;;
11572;SDS011;5842;52.426;4.886;2022-09-28T12:41:23;1.70;;;1.10;;
11572;SDS011;5842;52.426;4.886;2022-09-28T12:44:08;4.80;;;2.80;;
11572;SDS011;5842;52.426;4.886;2022-09-28T12:46:52;8.60;;;3.47;;
11572;SDS011;5842;52.426;4.886;2022-09-28T12:49:32;4.77;;;2.63;;
11572;SDS011;5842;52.426;4.886;2022-09-28T12:52:07;3.53;;;2.50;;
11572;SDS011;5842;52.426;4.886;2022-09-28T12:55:09;4.43;;;3.17;;
11572;SDS011;5842;52.426;4.886;2022-09-28T12:57:57;5.77;;;4.33;;
11572;SDS011;5842;52.426;4.886;2022-09-28T13:00:29;5.53;;;3.30;;
11572;SDS011;5842;52.426;4.886;2022-09-28T13:03:11;4.77;;;3.30;;
11572;SDS011;5842;52.426;4.886;2022-09-28T13:06:07;4.23;;;2.30;;
11572;SDS011;5842;52.426;4.886;2022-09-28T13:08:49;3.10;;;2.03;;
11572;SDS011;5842;52.426;4.886;2022-09-28T13:11:32;1.87;;;1.60;;
11572;SDS011;5842;52.426;4.886;2022-09-28T13:14:13;3.90;;;1.80;;
11572;SDS011;5842;52.426;4.886;2022-09-28T13:16:55;2.87;;;1.53;;
11572;SDS011;5842;52.426;4.886;2022-09-28T13:19:29;2.00;;;1.57;;
11572;SDS011;5842;52.426;4.886;2022-09-28T13:22:12;1.90;;;1.70;;
11572;SDS011;5842;52.426;4.886;2022-09-28T13:24:51;3.77;;;1.60;;
11572;SDS011;5842;52.426;4.886;2022-09-28T13:27:26;2.73;;;1.50;;
11572;SDS011;5842;52.426;4.886;2022-09-28T13:29:58;3.67;;;1.80;;
11572;SDS011;5842;52.426;4.886;2022-09-28T13:32:28;3.80;;;1.97;;
11572;SDS011;5842;52.426;4.886;2022-09-28T13:34:57;2.87;;;1.90;;
11572;SDS011;5842;52.426;4.886;2022-09-28T13:37:26;3.03;;;1.80;;
11572;SDS011;5842;52.426;4.886;2022-09-28T13:39:54;2.47;;;1.90;;
11572;SDS011;5842;52.426;4.886;2022-09-28T13:42:26;3.20;;;2.07;;
11572;SDS011;5842;52.426;4.886;2022-09-28T13:45:32;4.03;;;2.33;;
11572;SDS011;5842;52.426;4.886;2022-09-28T13:48:33;3.67;;;2.43;;
11572;SDS011;5842;52.426;4.886;2022-09-28T13:51:10;3.33;;;2.07;;
11572;SDS011;5842;52.426;4.886;2022-09-28T13:53:57;2.63;;;2.10;;
11572;SDS011;5842;52.426;4.886;2022-09-28T13:56:35;5.50;;;2.10;;
11572;SDS011;5842;52.426;4.886;2022-09-28T13:59:13;4.23;;;2.00;;
11572;SDS011;5842;52.426;4.886;2022-09-28T14:01:44;2.77;;;2.00;;
11572;SDS011;5842;52.426;4.886;2022-09-28T14:04:20;2.50;;;1.80;;
11572;SDS011;5842;52.426;4.886;2022-09-28T14:06:49;2.63;;;1.80;;
11572;SDS011;5842;52.426;4.886;2022-09-28T14:09:28;2.50;;;1.80;;
11572;SDS011;5842;52.426;4.886;2022-09-28T14:18:19;3.93;;;2.43;;
11572;SDS011;5842;52.426;4.886;2022-09-28T14:21:12;3.97;;;2.30;;
11572;SDS011;5842;52.426;4.886;2022-09-28T14:23:59;5.30;;;2.37;;
11572;SDS011;5842;52.426;4.886;2022-09-28T14:26:49;4.37;;;2.50;;
11572;SDS011;5842;52.426;4.886;2022-09-28T14:29:33;4.13;;;2.30;;
11572;SDS011;5842;52.426;4.886;2022-09-28T14:32:05;2.97;;;2.40;;
11572;SDS011;5842;52.426;4.886;2022-09-28T14:34:54;3.83;;;2.53;;
11572;SDS011;5842;52.426;4.886;2022-09-28T14:37:24;4.33;;;2.03;;
11572;SDS011;5842;52.426;4.886;2022-09-28T14:40:18;5.87;;;2.43;;
11572;SDS011;5842;52.426;4.886;2022-09-28T14:43:20;4.37;;;2.50;;
11572;SDS011;5842;52.426;4.886;2022-09-28T14:48:55;3.00;;;2.30;;
11572;SDS011;5842;52.426;4.886;2022-09-28T14:51:53;3.20;;;2.37;;
11572;SDS011;5842;52.426;4.886;2022-09-28T14:54:27;2.97;;;2.13;;
11572;SDS011;5842;52.426;4.886;2022-09-28T14:57:04;2.30;;;1.80;;
11572;SDS011;5842;52.426;4.886;2022-09-28T14:59:41;2.50;;;1.70;;
11572;SDS011;5842;52.426;4.886;2022-09-28T15:02:12;2.60;;;1.90;;
11572;SDS011;5842;52.426;4.886;2022-09-28T15:04:53;2.17;;;1.97;;
11572;SDS011;5842;52.426;4.886;2022-09-28T15:07:24;3.70;;;1.73;;
11572;SDS011;5842;52.426;4.886;2022-09-28T15:09:54;3.87;;;2.13;;
11572;SDS011;5842;52.426;4.886;2022-09-28T15:12:23;2.47;;;1.80;;
11572;SDS011;5842;52.426;4.886;2022-09-28T15:14:53;4.93;;;2.20;;
11572;SDS011;5842;52.426;4.886;2022-09-28T15:17:23;3.37;;;1.90;;
11572;SDS011;5842;52.426;4.886;2022-09-28T15:22:49;3.17;;;1.90;;
11572;SDS011;5842;52.426;4.886;2022-09-28T15:25:21;3.33;;;1.83;;
11572;SDS011;5842;52.426;4.886;2022-09-28T15:27:50;2.53;;;1.80;;
11572;SDS011;5842;52.426;4.886;2022-09-28T15:30:20;2.10;;;1.60;;
11572;SDS011;5842;52.426;4.886;2022-09-28T15:32:52;3.40;;;1.97;;
11572;SDS011;5842;52.426;4.886;2022-09-28T15:35:23;2.07;;;1.60;;
11572;SDS011;5842;52.426;4.886;2022-09-28T15:37:51;2.50;;;1.60;;
11572;SDS011;5842;52.426;4.886;2022-09-28T15:40:21;2.33;;;1.60;;
11572;SDS011;5842;52.426;4.886;2022-09-28T15:42:55;2.80;;;1.80;;
11572;SDS011;5842;52.426;4.886;2022-09-28T15:45:26;2.43;;;1.70;;
11572;SDS011;5842;52.426;4.886;2022-09-28T15:48:01;3.30;;;1.70;;
11572;SDS011;5842;52.426;4.886;2022-09-28T15:50:57;2.13;;;1.50;;
11572;SDS011;5842;52.426;4.886;2022-09-28T15:53:29;2.00;;;1.47;;
11572;SDS011;5842;52.426;4.886;2022-09-28T15:55:58;1.87;;;1.37;;
11572;SDS011;5842;52.426;4.886;2022-09-28T15:58:33;2.67;;;1.70;;
11572;SDS011;5842;52.426;4.886;2022-09-28T16:01:17;2.37;;;1.50;;
11572;SDS011;5842;52.426;4.886;2022-09-28T16:03:50;3.03;;;1.60;;
11572;SDS011;5842;52.426;4.886;2022-09-28T16:06:23;2.70;;;1.43;;
11572;SDS011;5842;52.426;4.886;2022-09-28T16:08:50;3.53;;;1.90;;
11572;SDS011;5842;52.426;4.886;2022-09-28T16:11:18;3.83;;;2.10;;
11572;SDS011;5842;52.426;4.886;2022-09-28T16:13:53;2.67;;;1.90;;
11572;SDS011;5842;52.426;4.886;2022-09-28T16:16:24;4.90;;;2.53;;
11572;SDS011;5842;52.426;4.886;2022-09-28T16:18:54;4.47;;;2.30;;
11572;SDS011;5842;52.426;4.886;2022-09-28T16:24:19;2.50;;;1.60;;
11572;SDS011;5842;52.426;4.886;2022-09-28T16:26:48;2.83;;;1.80;;
11572;SDS011;5842;52.426;4.886;2022-09-28T16:29:22;2.73;;;1.20;;
11572;SDS011;5842;52.426;4.886;2022-09-28T16:31:52;3.40;;;1.43;;
11572;SDS011;5842;52.426;4.886;2022-09-28T16:34:22;2.97;;;1.60;;
11572;SDS011;5842;52.426;4.886;2022-09-28T16:36:52;4.13;;;1.83;;
11572;SDS011;5842;52.426;4.886;2022-09-28T16:39:19;2.47;;;1.33;;
11572;SDS011;5842;52.426;4.886;2022-09-28T16:41:47;3.00;;;1.50;;
11572;SDS011;5842;52.426;4.886;2022-09-28T16:44:18;2.07;;;1.47;;
11572;SDS011;5842;52.426;4.886;2022-09-28T16:46:50;2.07;;;1.47;;
11572;SDS011;5842;52.426;4.886;2022-09-28T16:49:19;2.83;;;1.80;;
11572;SDS011;5842;52.426;4.886;2022-09-28T16:51:49;2.10;;;1.60;;
11572;SDS011;5842;52.426;4.886;2022-09-28T16:54:19;3.33;;;1.73;;
11572;SDS011;5842;52.426;4.886;2022-09-28T16:57:05;3.33;;;1.90;;
11572;SDS011;5842;52.426;4.886;2022-09-28T16:59:34;3.57;;;1.73;;
11572;SDS011;5842;52.426;4.886;2022-09-28T17:02:04;6.27;;;2.10;;
11572;SDS011;5842;52.426;4.886;2022-09-28T17:04:40;3.57;;;2.20;;
11572;SDS011;5842;52.426;4.886;2022-09-28T17:07:09;4.33;;;2.43;;
11572;SDS011;5842;52.426;4.886;2022-09-28T17:09:38;4.10;;;2.30;;
11572;SDS011;5842;52.426;4.886;2022-09-28T17:12:08;5.20;;;2.40;;
11572;SDS011;5842;52.426;4.886;2022-09-28T17:14:40;6.50;;;2.20;;
11572;SDS011;5842;52.426;4.886;2022-09-28T17:17:07;3.20;;;1.90;;
11572;SDS011;5842;52.426;4.886;2022-09-28T17:19:34;5.90;;;2.40;;
11572;SDS011;5842;52.426;4.886;2022-09-28T17:22:01;4.90;;;2.40;;
11572;SDS011;5842;52.426;4.886;2022-09-28T17:24:30;4.43;;;2.20;;
11572;SDS011;5842;52.426;4.886;2022-09-28T17:26:57;4.47;;;2.70;;
11572;SDS011;5842;52.426;4.886;2022-09-28T17:29:25;4.07;;;2.67;;
11572;SDS011;5842;52.426;4.886;2022-09-28T17:31:52;4.77;;;2.43;;
11572;SDS011;5842;52.426;4.886;2022-09-28T17:34:20;3.00;;;2.20;;
11572;SDS011;5842;52.426;4.886;2022-09-28T17:36:47;3.13;;;2.17;;
11572;SDS011;5842;52.426;4.886;2022-09-28T17:39:15;3.77;;;2.10;;
11572;SDS011;5842;52.426;4.886;2022-09-28T17:41:45;6.57;;;3.53;;
